Impacts TAF Board
For situational awareness. Not to be used for flight planning purposes.
IDs:

KECP - Panama City/NW Flori, FL, US

Issued at 2341 UTC 04 Jul 2022
Updated at 0122 UTC 05 Jul 2022
Potential Impact None Slight Moderate High
Time<<05/14Z 05/15Z 05/16Z 05/17Z 05/18Z 05/19Z 05/20Z 05/21Z 05/22Z 05/23Z 06/00Z 06/01Z 06/02Z>>
Type PRVL PRVL PRVL PRVL PRVL PRVL PRVL PRVL PRVL PRVL
VIS >6 >6 >6 >6 >6 >6 >6 >6 >6 >6
CIG -- -- -- -- -- -- -- -- -- --
Cover SCT SCT SCT SCT SCT SCT SCT SCT SCT SCT
FltCat VFR VFR VFR VFR VFR VFR VFR VFR VFR VFR
WX -- -- -- -- -- -- -- -- VCTS VCTS
WDir 330 330 330 330 330 330 330 330 220 220
WSpd 4 4 4 4 4 4 4 4 5 5
WGst -- -- -- -- -- -- -- -- -- --
WSHgt -- -- -- -- -- -- -- -- -- --
WSDir -- -- -- -- -- -- -- -- -- --
WSSpd -- -- -- -- -- -- -- -- -- --
R16/34
XWnd -1 -1 -1 -1 -1 -1 -1 -1 -4 -4 0 0 0
Raw TAF
KECP 042341Z 0500/0524 27005KT P6SM SCT040
  FM051400 33004KT P6SM SCT040
  FM052200 22005KT P6SM VCTS SCT030CB


METAR Board
Radar Display
Forecast Discussion
For situational awareness. Not to be used for flight planning purposes.